Portada
METAR-TAF:

METAR-TAF

Aeroports :

Aeroport Internacional de Ginebra

Ginebra, Suïssa

latitud: 46-15N, longitud: 006-08E, altitud: 420 m

Observació

L'informe es va fer fa 27 minuts, a les 03:50 UTC
Vent 2 kt del Oest
Temperatura 14°C
Humitat 94%
Pressió 1019 hPa
Visibilitat 10 km o més
sense núvols per sota de 1500 mi sense presència de cumulonimbus.

METAR: LSGG 170350Z 26002KT CAVOK 14/13 Q1019 NOSIG

Hora: 06:17 (04:17 UTC)

Pronòstic

L'informe es va fer fa 1 hora i 52 minuts, a les 02:25 UTC
Pronòstic vàlid del 17 a les 03 UTC al 18 a les 09 UTC
Vent 3 kt amb direcció variable
Visibilitat 10 km o més
sense núvols per sota de 1500 mi sense presència de cumulonimbus.
Evolucionant progressivament
l' 17 a les 13 UTC al 17 a les 15 UTC
Vent 10 kt del Nord-Est
Visibilitat 10 km o més
Escasses núvols a una alçada de 5000 ft

TAF: LSGG 170225Z 1703/1809 VRB03KT CAVOK TX27/1715Z TN14/1705Z TN14/1805Z BECMG 1713/1715 05010KT 9999 FEW050

Observacions i pronòstics meteorològics de més de 4000 aeroports (METAR i TAF).

Les estacions disponibles són els punts grocs i vermells al mapa.

Posi el ratolí al punt desitjat per veure el nom de l'estació.

Feu clic per veure les observacions i els pronòstics meteorològics.

Per canviar el mapa: feu clic els botons verds amb una creu de color negre per apropar; al botó verd amb un guió per allunyar la imatge; o en les fletxes verdes per a mapes adjacents.


METAR-TAF: